createdAt,value
2019-02-17T00:01:22.147Z,1.25
2019-02-17T00:06:25.786Z,1.60
2019-02-17T00:11:29.261Z,1.85
2019-02-17T00:16:32.738Z,1.62
2019-02-17T00:21:36.214Z,1.65
2019-02-17T00:26:39.693Z,1.00
2019-02-17T00:31:43.166Z,1.45
2019-02-17T00:36:46.645Z,1.72
2019-02-17T00:41:50.190Z,1.20
2019-02-17T00:46:53.671Z,1.60
2019-02-17T00:51:57.147Z,1.73
2019-02-17T00:57:00.627Z,1.40
2019-02-17T01:02:04.109Z,1.80
2019-02-17T01:07:07.592Z,1.87
2019-02-17T01:12:11.076Z,1.57
2019-02-17T01:17:14.551Z,1.40
2019-02-17T01:22:18.027Z,1.65
2019-02-17T01:27:21.569Z,1.15
2019-02-17T01:32:24.990Z,0.87
2019-02-17T01:37:28.471Z,1.30
2019-02-17T01:42:31.951Z,2.42
2019-02-17T01:47:35.422Z,1.47
2019-02-17T01:52:38.898Z,1.20
2019-02-17T01:57:42.376Z,1.20
2019-02-17T02:02:45.855Z,1.35
2019-02-17T02:07:49.336Z,1.95
2019-02-17T02:12:52.881Z,1.60
2019-02-17T02:17:56.371Z,1.40
2019-02-17T02:22:59.850Z,1.80
2019-02-17T02:28:03.321Z,1.30
2019-02-17T02:33:06.799Z,1.45
2019-02-17T02:38:10.274Z,2.22
2019-02-17T02:43:13.755Z,1.15
2019-02-17T02:48:17.225Z,1.03
2019-02-17T02:53:20.707Z,1.02
2019-02-17T02:58:24.193Z,1.25
2019-02-17T03:03:27.659Z,1.57
2019-02-17T03:08:31.141Z,1.98
2019-02-17T03:13:34.638Z,1.60
2019-02-17T03:18:38.098Z,1.40
2019-02-17T03:23:41.574Z,1.40
2019-02-17T03:28:45.059Z,1.10
2019-02-17T03:33:48.551Z,1.95
2019-02-17T03:38:52.012Z,1.62
2019-02-17T03:43:55.483Z,1.93
2019-02-17T03:48:58.954Z,1.87
2019-02-17T03:54:02.431Z,1.52
2019-02-17T03:59:05.906Z,0.82
2019-02-17T04:04:09.389Z,0.90
2019-02-17T04:09:12.865Z,1.50
2019-02-17T04:14:16.343Z,1.52
2019-02-17T04:19:19.820Z,1.50
2019-02-17T04:24:23.307Z,1.32
2019-02-17T04:29:26.781Z,1.10
2019-02-17T04:34:30.263Z,1.92
2019-02-17T04:39:33.734Z,1.65
2019-02-17T04:44:37.211Z,1.30
2019-02-17T04:49:40.687Z,1.50
2019-02-17T04:54:44.173Z,1.12
2019-02-17T04:59:47.651Z,1.27
2019-02-17T05:04:51.128Z,1.27
2019-02-17T05:09:54.594Z,2.13
2019-02-17T05:14:58.072Z,1.33
2019-02-17T05:20:01.548Z,0.90
2019-02-17T05:25:06.912Z,1.65
2019-02-17T05:30:11.538Z,1.12
2019-02-17T05:35:15.021Z,0.97
2019-02-17T05:40:18.488Z,1.43
2019-02-17T05:45:21.974Z,1.00
2019-02-17T05:50:25.442Z,0.88
2019-02-17T05:55:28.918Z,1.07
2019-02-17T06:00:32.943Z,1.40
2019-02-17T06:05:36.422Z,1.00
2019-02-17T06:10:39.900Z,1.30
2019-02-17T06:15:43.375Z,1.10
2019-02-17T06:20:46.852Z,1.42
2019-02-17T06:25:50.328Z,1.22
2019-02-17T06:30:53.803Z,1.15
2019-02-17T06:35:57.280Z,1.45
2019-02-17T06:41:00.756Z,1.50
2019-02-17T06:46:04.302Z,1.37
2019-02-17T06:51:07.779Z,1.00
2019-02-17T06:56:21.717Z,1.40
2019-02-17T07:01:25.239Z,1.27
2019-02-17T07:06:39.386Z,1.65
2019-02-17T07:11:42.835Z,1.27
2019-02-17T07:16:46.315Z,1.00
2019-02-17T07:21:49.790Z,1.15
2019-02-17T07:26:53.266Z,2.58
2019-02-17T07:31:56.743Z,1.67
2019-02-17T07:37:00.217Z,1.30
2019-02-17T07:42:03.699Z,0.80
2019-02-17T07:47:07.179Z,1.40
2019-02-17T07:52:10.661Z,11.77
2019-02-17T07:57:14.184Z,16.57
2019-02-17T08:02:17.679Z,15.07
2019-02-17T08:07:21.155Z,14.80
2019-02-17T08:12:24.656Z,11.50
2019-02-17T08:17:28.179Z,13.07
2019-02-17T08:22:31.663Z,7.97
2019-02-17T08:27:35.131Z,7.90
2019-02-17T08:32:38.611Z,9.45
2019-02-17T08:37:42.138Z,6.90
2019-02-17T08:42:45.641Z,6.70
2019-02-17T08:47:49.134Z,7.23
2019-02-17T08:52:52.636Z,6.83
2019-02-17T08:57:56.207Z,8.10
2019-02-17T09:02:59.690Z,5.33
2019-02-17T09:08:04.053Z,7.08
2019-02-17T09:13:07.556Z,8.47
2019-02-17T09:18:11.047Z,7.30
2019-02-17T09:23:14.545Z,10.50
2019-02-17T09:28:18.036Z,7.10
2019-02-17T09:33:21.605Z,7.25
2019-02-17T09:38:25.093Z,8.35
2019-02-17T09:43:28.590Z,6.97
2019-02-17T09:48:32.082Z,9.40
2019-02-17T09:53:35.577Z,10.90
2019-02-17T09:58:39.067Z,8.57
2019-02-17T10:03:42.563Z,8.75
2019-02-17T10:08:46.054Z,8.35
2019-02-17T10:13:49.543Z,8.30
2019-02-17T10:18:53.039Z,8.85
2019-02-17T10:23:56.597Z,8.20
2019-02-17T10:29:00.111Z,8.15
2019-02-17T10:34:03.610Z,6.42
2019-02-17T10:39:07.538Z,9.83
2019-02-17T10:44:11.032Z,8.83
2019-02-17T10:49:14.523Z,9.08
2019-02-17T10:54:18.017Z,8.85
2019-02-17T10:59:21.509Z,5.40
2019-02-17T11:04:25.001Z,6.93
2019-02-17T11:09:28.500Z,6.00
2019-02-17T11:14:31.989Z,6.50
2019-02-17T11:19:35.484Z,6.57
2019-02-17T11:24:38.974Z,7.37
2019-02-17T11:29:42.474Z,4.55
2019-02-17T11:34:45.963Z,4.65
2019-02-17T11:39:49.450Z,5.87
2019-02-17T11:44:52.943Z,8.97
2019-02-17T11:49:56.437Z,11.22
2019-02-17T11:54:59.941Z,12.03
2019-02-17T12:00:03.867Z,9.43
2019-02-17T12:05:09.302Z,12.20
2019-02-17T12:10:12.927Z,11.20
2019-02-17T12:15:16.430Z,9.50
2019-02-17T12:20:34.600Z,8.77
2019-02-17T12:25:42.717Z,8.88
2019-02-17T12:30:47.992Z,7.50
2019-02-17T12:35:51.510Z,8.53
2019-02-17T12:40:54.997Z,7.73
2019-02-17T12:45:58.489Z,8.33
2019-02-17T12:51:01.987Z,8.48
2019-02-17T12:56:05.477Z,8.18
2019-02-17T13:01:08.966Z,7.22
2019-02-17T13:06:12.459Z,10.35
2019-02-17T13:11:16.019Z,6.95
2019-02-17T13:16:19.514Z,6.67
2019-02-17T13:21:23.006Z,6.53
2019-02-17T13:26:26.498Z,6.42
2019-02-17T13:31:29.976Z,6.42
2019-02-17T13:36:33.445Z,6.83
2019-02-17T13:41:37.779Z,6.42
2019-02-17T13:46:41.254Z,6.23
2019-02-17T13:51:44.730Z,5.75
2019-02-17T13:56:48.208Z,6.90
2019-02-17T14:01:51.677Z,4.57
2019-02-17T14:06:55.153Z,4.75
2019-02-17T14:11:58.631Z,6.40
2019-02-17T14:17:02.110Z,5.28
2019-02-17T14:22:05.578Z,7.60
2019-02-17T14:27:09.054Z,7.95
2019-02-17T14:32:12.534Z,5.35
2019-02-17T14:37:16.010Z,5.78
2019-02-17T14:42:19.487Z,5.67
2019-02-17T14:47:22.964Z,6.60
2019-02-17T14:52:26.439Z,6.45
2019-02-17T14:57:29.914Z,4.17
2019-02-17T15:02:33.389Z,5.80
2019-02-17T15:07:36.866Z,4.55
2019-02-17T15:12:40.369Z,6.35
2019-02-17T15:17:43.845Z,5.33
2019-02-17T15:22:47.318Z,7.03
2019-02-17T15:27:50.793Z,5.12
2019-02-17T15:33:03.274Z,9.40
2019-02-17T15:37:59.480Z,6.58
2019-02-17T15:43:02.958Z,5.90
2019-02-17T15:48:06.440Z,6.60
2019-02-17T15:53:09.913Z,6.72
2019-02-17T15:58:13.391Z,6.25
2019-02-17T16:03:16.865Z,5.78
2019-02-17T16:08:20.360Z,4.62
2019-02-17T16:13:23.841Z,5.45
2019-02-17T16:18:28.077Z,5.35
2019-02-17T16:23:31.558Z,5.55
2019-02-17T16:28:35.029Z,6.00
2019-02-17T16:33:38.507Z,6.72
2019-02-17T16:38:41.981Z,6.12
2019-02-17T16:43:45.455Z,6.37
2019-02-17T16:48:48.936Z,5.60
2019-02-17T16:53:52.418Z,6.07
2019-02-17T16:58:55.898Z,7.53
2019-02-17T17:03:59.443Z,5.53
2019-02-17T17:09:03.096Z,4.92
2019-02-17T17:14:08.921Z,4.83
2019-02-17T17:19:11.782Z,4.95
2019-02-17T17:24:15.258Z,4.47
2019-02-17T17:29:18.738Z,5.95
2019-02-17T17:34:22.277Z,6.78
2019-02-17T17:39:25.701Z,5.10
2019-02-17T17:44:29.182Z,6.83
2019-02-17T17:49:32.668Z,5.87
2019-02-17T17:54:36.165Z,6.17
2019-02-17T17:59:39.650Z,7.83
2019-02-17T18:04:43.163Z,7.17
2019-02-17T18:09:46.653Z,7.05
2019-02-17T18:14:50.132Z,5.90
2019-02-17T18:19:53.617Z,6.80
2019-02-17T18:24:57.107Z,6.57
2019-02-17T18:30:00.595Z,6.35
2019-02-17T18:35:05.227Z,7.65
2019-02-17T18:40:11.563Z,6.05
2019-02-17T18:45:16.094Z,6.53
2019-02-17T18:50:19.856Z,6.72
2019-02-17T18:55:23.347Z,5.70
2019-02-17T19:00:27.410Z,7.45
2019-02-17T19:05:32.207Z,6.78
2019-02-17T19:10:35.982Z,6.23
2019-02-17T19:15:39.457Z,7.45
2019-02-17T19:20:42.951Z,6.67
2019-02-17T19:25:46.441Z,6.33
2019-02-17T19:30:49.933Z,5.15
2019-02-17T19:35:53.421Z,5.37
2019-02-17T19:40:56.916Z,5.50
2019-02-17T19:46:00.405Z,6.87
2019-02-17T19:51:03.904Z,5.22
2019-02-17T19:56:07.667Z,5.77
2019-02-17T20:01:11.264Z,4.83
2019-02-17T20:06:16.398Z,7.75
2019-02-17T20:11:19.892Z,5.42
2019-02-17T20:16:23.382Z,4.87
2019-02-17T20:21:26.874Z,5.35
2019-02-17T20:26:30.372Z,4.40
2019-02-17T20:31:33.866Z,6.00
2019-02-17T20:36:37.447Z,4.93
2019-02-17T20:41:40.931Z,7.17
2019-02-17T20:46:44.427Z,5.28
2019-02-17T20:51:47.918Z,4.20
2019-02-17T20:56:51.410Z,5.17
2019-02-17T21:01:54.898Z,4.90
2019-02-17T21:06:58.396Z,4.22
2019-02-17T21:12:01.890Z,4.83
2019-02-17T21:17:05.471Z,4.70
2019-02-17T21:22:08.947Z,5.33
2019-02-17T21:27:12.446Z,3.47
2019-02-17T21:32:15.938Z,3.85
2019-02-17T21:37:19.441Z,5.00
2019-02-17T21:42:22.918Z,3.98
2019-02-17T21:47:26.414Z,4.62
2019-02-17T21:52:29.903Z,4.17
2019-02-17T21:57:33.394Z,2.80
2019-02-17T22:02:36.895Z,4.28
2019-02-17T22:07:40.407Z,5.08
2019-02-17T22:12:43.872Z,4.70
2019-02-17T22:17:47.367Z,6.47
2019-02-17T22:22:50.860Z,3.30
2019-02-17T22:27:54.350Z,3.87
2019-02-17T22:32:57.845Z,5.17
2019-02-17T22:38:01.338Z,3.12
2019-02-17T22:43:04.813Z,3.37
2019-02-17T22:48:08.289Z,3.00
2019-02-17T22:53:12.037Z,4.08
2019-02-17T22:58:15.510Z,3.10
2019-02-17T23:03:18.997Z,2.75
2019-02-17T23:08:22.459Z,3.80
2019-02-17T23:13:25.940Z,3.92
2019-02-17T23:18:29.419Z,4.37
2019-02-17T23:23:32.904Z,2.52
2019-02-17T23:28:36.386Z,3.83
2019-02-17T23:33:39.864Z,3.17
2019-02-17T23:38:43.345Z,4.17
2019-02-17T23:43:46.827Z,3.73
2019-02-17T23:48:50.306Z,2.93
2019-02-17T23:53:53.789Z,3.97
2019-02-17T23:58:57.261Z,2.42
